Aberdeen Regional Airport
KABR : now visible

Airfield :











YOU CAN JOIN US ON...

 
LOGIN :

Register | Disclaimer

   EN    FR    IT 

 









Legend :    VFR   Marginal VFR   IFR   Intensive IFR   Very Intensive IFR
Visi :
Ceiling :
>= 8 km
>= 3000ft
5 to 8 km
1000 to 3000 ft
1500m to 5 km
500 to 1000 ft
800 to 1500m
200 to 500 ft
< 800m
< 200 ft
Symbols :   Thunderstorms  Fog  Heavy snow  Heavy precipitations  Wind > 20 kt






- Airport Elevation : 1302 ft
- IATA code : ABR


KABR - Aberdeen Regional

CURRENT METAR :
  • 181219Z AUTO 23005KT 1/4SM FG VV001 10/09 A2986 RMK AO2 T01000094

EXPIRED METARs :
  • 181203Z AUTO 00000KT M1/4SM FG VV001 10/09 A2987 RMK AO2 T01000094
  • 181153Z AUTO 00000KT 1/4SM FG VV001 10/09 A2986 RMK AO2 LTG DSNT E SLP111 T01000094 10106 20072 58003
  • 181139Z AUTO 19005KT 1/4SM FG BKN002 OVC100 09/09 A2986 RMK AO2 T00940094
  • 181124Z AUTO 20004KT 1 1/4SM BR BKN100 09/09 A2987 RMK AO2 T00940089
  • 181053Z AUTO 19006KT 3SM BR FEW005 BKN100 10/09 A2987 RMK AO2 SLP117 T01000094
  • 181046Z AUTO 20006KT 2 1/2SM BR FEW002 SCT005 BKN100 10/09 A2987 RMK AO2 T01000094
  • 181037Z AUTO 19005KT 2 1/2SM BR BKN005 BKN110 10/09 A2987 RMK AO2 T01000094
  • 181029Z AUTO 19005KT 1 1/2SM BR BKN005 OVC110 10/09 A2988 RMK AO2 T01000089
  • 181021Z AUTO 19006KT 1/2SM FG BKN004 OVC100 09/09 A2988 RMK AO2 T00940089
  • 181009Z AUTO 18004KT 1/4SM FG VV004 08/08 A2987 RMK AO2 T00830083
  • 180953Z AUTO 21004KT 1/2SM FG BKN004 OVC120 08/08 A2987 RMK AO2 SLP117 T00830078
  • 180934Z AUTO 18004KT 1/2SM FG BKN003 OVC120 09/08 A2987 RMK AO2 T00890083

TAF KABR
Valid from the 18 at 12:00 until the 19 at 12:00 UTC


181125Z 1812/1912 22005KT 3SM BR BKN100
FM181400 24009KT P6SM SCT250
FM181800 29015G23KT P6SM SCT250
FM190100 VRB04KT P6SM BKN250
KZMP FIR / North America



MET'MAP, your aeronautical weather chart ! - Copyright ORBIFLY December 2007 - Disclaimer

ORBIFLY MET'MAP TEAM :

Programming & Development : Alexandra Zaïnal
Original concept : Baudouin d'Aumeries
Technical & hardware support : Manuel Goepfert
Assistance : Marc-Olivier Méhu

Contact : metmap@orbifly.com




SOURCES & CREDITS :

   NOAA       Earth
Advisory